map of HSG home
HSG - Airport
Location
City:  Saga, Saga, Japan
Name:Saga Airport
ICAO:RJFS
IATA:HSG

Details
Type:Airport (Aerodrome, Airfield)
Latitude:33°08'59"N (33.149722)
Longitude:130°18'08"E (130.302222)
Datum:WGS 1984
Elevation:6 ft (2 m)
Variation:7.39°W (WMM2015 magnetic declination)
-0.08° annual change
Runways:1
Longest:6562 × 148 ft (2000 × 45 m), paved

Time
Time Zone:UTC+9
Local Time:

Weather
METAR:RJFS 131700Z 06004KT 010V070 9999 FEW040 BKN050 07/04 Q1028
TAF:RJFS 131710Z 1318/1500 32006KT 9999 FEW030 BKN050

Related Locations
Nearby:
Farthest:SJRG: 12280 mi / 19762 km
Río Grande [Regional de Río Grande], RS, BR

Find:

   beyond  
but within

Other Information
Maps:
NOTAMs:
Links:
Sources:

  
  • flag of Japan
  • flag of Saga
  

Sectional Chart

Flight Planning
at skyvector.com

Satellite Image

Google Maps Satellite view

 

Copyright © 2004-2018 Karl L. Swartz. All rights reserved.
The Great Circle Mapper name and logo are trademarks of the Great Circle Mapper.
All other trademarks mentioned herein belong to their respective owners.
Please see credits for attibutions and further copyright information.

  Follow gcmap on Facebook Follow gcmap on Twitter Follow gcmap on Google+ GCmap on LinkedIn

hCard Microformat

Geo Microformat